Elton, West Virginia
Current Conditions -  °F | °C
As of 1:51 PM on Thursday 30 Oct 2014 (Local Time) from KBKW Reporting Station
Overcast Overcast  
Wind Chill: 40°   Ceiling: 2400
Heat Index: 43°   Visibility: 10mi
Dew Point: 31°   Wind: 5mph
Humidity: 62%   Direction: 350°N
Pressure: 30.08"   Gusts: NA
Location:  37.83°N, 80.8°W
Report Text: KBKW 301751Z AUTO 35004KT 10SM OVC024 06/M01 A3008 RMK AO2 SLP197 T00611006 10061 20011 58010 TSNO
Loading
Personal Weather Stations






























Interactive Weather Map
Tropical Storm Tracking
New forecast layout! Learn more

10-Day Weather Forecast

Advertisements
Track Severe Weather on mobile